sensor_id;sensor_type;location;lat;lon;timestamp;P1;durP1;ratioP1;P2;durP2;ratioP2
53971;SDS011;40530;53.062;6.078;2022-07-17T00:00:42;7.28;;;1.58;;
53971;SDS011;40530;53.062;6.078;2022-07-17T00:03:09;4.93;;;1.45;;
53971;SDS011;40530;53.062;6.078;2022-07-17T00:05:35;4.93;;;1.00;;
53971;SDS011;40530;53.062;6.078;2022-07-17T00:08:01;7.78;;;1.52;;
53971;SDS011;40530;53.062;6.078;2022-07-17T00:10:28;1.58;;;0.90;;
53971;SDS011;40530;53.062;6.078;2022-07-17T00:12:54;3.45;;;1.10;;
53971;SDS011;40530;53.062;6.078;2022-07-17T00:15:20;6.07;;;1.05;;
53971;SDS011;40530;53.062;6.078;2022-07-17T00:17:46;6.10;;;1.35;;
53971;SDS011;40530;53.062;6.078;2022-07-17T00:20:12;4.20;;;1.38;;
53971;SDS011;40530;53.062;6.078;2022-07-17T00:22:38;7.63;;;1.75;;
53971;SDS011;40530;53.062;6.078;2022-07-17T00:25:05;4.68;;;1.27;;
53971;SDS011;40530;53.062;6.078;2022-07-17T00:27:32;4.50;;;1.40;;
53971;SDS011;40530;53.062;6.078;2022-07-17T00:29:58;4.35;;;1.75;;
53971;SDS011;40530;53.062;6.078;2022-07-17T00:32:24;6.28;;;1.95;;
53971;SDS011;40530;53.062;6.078;2022-07-17T00:34:50;6.93;;;1.90;;
53971;SDS011;40530;53.062;6.078;2022-07-17T00:37:16;4.05;;;1.20;;
53971;SDS011;40530;53.062;6.078;2022-07-17T00:39:42;3.35;;;1.30;;
53971;SDS011;40530;53.062;6.078;2022-07-17T00:42:12;6.05;;;1.50;;
53971;SDS011;40530;53.062;6.078;2022-07-17T00:44:39;5.90;;;1.40;;
53971;SDS011;40530;53.062;6.078;2022-07-17T00:47:15;6.88;;;1.60;;
53971;SDS011;40530;53.062;6.078;2022-07-17T00:49:43;3.05;;;1.90;;
53971;SDS011;40530;53.062;6.078;2022-07-17T00:52:09;5.10;;;1.83;;
53971;SDS011;40530;53.062;6.078;2022-07-17T00:54:37;3.65;;;2.05;;
53971;SDS011;40530;53.062;6.078;2022-07-17T00:57:11;6.25;;;2.25;;
53971;SDS011;40530;53.062;6.078;2022-07-17T00:59:37;6.65;;;1.98;;
53971;SDS011;40530;53.062;6.078;2022-07-17T01:02:05;5.32;;;1.92;;
53971;SDS011;40530;53.062;6.078;2022-07-17T01:04:32;6.60;;;2.30;;
53971;SDS011;40530;53.062;6.078;2022-07-17T01:06:58;4.93;;;2.30;;
53971;SDS011;40530;53.062;6.078;2022-07-17T01:09:25;6.78;;;2.15;;
53971;SDS011;40530;53.062;6.078;2022-07-17T01:11:51;6.63;;;2.88;;
53971;SDS011;40530;53.062;6.078;2022-07-17T01:14:17;12.07;;;2.80;;
53971;SDS011;40530;53.062;6.078;2022-07-17T01:16:43;5.85;;;2.53;;
53971;SDS011;40530;53.062;6.078;2022-07-17T01:19:10;5.45;;;2.47;;
53971;SDS011;40530;53.062;6.078;2022-07-17T01:21:40;6.90;;;2.65;;
53971;SDS011;40530;53.062;6.078;2022-07-17T01:24:07;7.50;;;3.10;;
53971;SDS011;40530;53.062;6.078;2022-07-17T01:26:35;10.20;;;4.35;;
53971;SDS011;40530;53.062;6.078;2022-07-17T01:29:01;7.40;;;3.47;;
53971;SDS011;40530;53.062;6.078;2022-07-17T01:31:28;12.68;;;4.03;;
53971;SDS011;40530;53.062;6.078;2022-07-17T01:33:54;10.23;;;3.55;;
53971;SDS011;40530;53.062;6.078;2022-07-17T01:36:23;13.57;;;3.00;;
53971;SDS011;40530;53.062;6.078;2022-07-17T01:38:50;7.65;;;3.38;;
53971;SDS011;40530;53.062;6.078;2022-07-17T01:41:16;9.30;;;3.33;;
53971;SDS011;40530;53.062;6.078;2022-07-17T01:43:42;5.97;;;3.00;;
53971;SDS011;40530;53.062;6.078;2022-07-17T01:46:08;11.70;;;3.00;;
53971;SDS011;40530;53.062;6.078;2022-07-17T01:48:34;6.95;;;2.75;;
53971;SDS011;40530;53.062;6.078;2022-07-17T01:51:00;7.05;;;2.78;;
53971;SDS011;40530;53.062;6.078;2022-07-17T01:53:28;8.13;;;3.20;;
53971;SDS011;40530;53.062;6.078;2022-07-17T01:55:54;6.28;;;2.50;;
53971;SDS011;40530;53.062;6.078;2022-07-17T01:58:20;7.45;;;2.97;;
53971;SDS011;40530;53.062;6.078;2022-07-17T02:00:46;8.75;;;3.85;;
53971;SDS011;40530;53.062;6.078;2022-07-17T02:03:12;10.95;;;5.03;;
53971;SDS011;40530;53.062;6.078;2022-07-17T02:05:38;9.63;;;3.50;;
53971;SDS011;40530;53.062;6.078;2022-07-17T02:08:04;9.60;;;3.80;;
53971;SDS011;40530;53.062;6.078;2022-07-17T02:10:30;7.43;;;3.72;;
53971;SDS011;40530;53.062;6.078;2022-07-17T02:12:56;12.73;;;4.25;;
53971;SDS011;40530;53.062;6.078;2022-07-17T02:15:23;10.77;;;3.83;;
53971;SDS011;40530;53.062;6.078;2022-07-17T02:17:49;6.93;;;3.47;;
53971;SDS011;40530;53.062;6.078;2022-07-17T02:20:16;10.25;;;3.58;;
53971;SDS011;40530;53.062;6.078;2022-07-17T02:22:42;4.65;;;2.08;;
53971;SDS011;40530;53.062;6.078;2022-07-17T02:25:10;5.63;;;3.05;;
53971;SDS011;40530;53.062;6.078;2022-07-17T02:27:36;4.43;;;2.40;;
53971;SDS011;40530;53.062;6.078;2022-07-17T02:30:06;7.32;;;2.35;;
53971;SDS011;40530;53.062;6.078;2022-07-17T02:32:33;7.40;;;2.25;;
53971;SDS011;40530;53.062;6.078;2022-07-17T02:34:59;5.60;;;1.85;;
53971;SDS011;40530;53.062;6.078;2022-07-17T02:37:25;4.53;;;2.33;;
53971;SDS011;40530;53.062;6.078;2022-07-17T02:39:51;6.78;;;2.20;;
53971;SDS011;40530;53.062;6.078;2022-07-17T02:42:21;7.43;;;2.20;;
53971;SDS011;40530;53.062;6.078;2022-07-17T02:44:47;4.43;;;2.20;;
53971;SDS011;40530;53.062;6.078;2022-07-17T02:47:20;4.90;;;1.90;;
53971;SDS011;40530;53.062;6.078;2022-07-17T02:49:46;5.57;;;2.20;;
53971;SDS011;40530;53.062;6.078;2022-07-17T02:52:12;3.65;;;1.92;;
53971;SDS011;40530;53.062;6.078;2022-07-17T02:54:39;6.45;;;2.72;;
53971;SDS011;40530;53.062;6.078;2022-07-17T02:57:05;7.78;;;2.25;;
53971;SDS011;40530;53.062;6.078;2022-07-17T02:59:31;5.45;;;2.70;;
53971;SDS011;40530;53.062;6.078;2022-07-17T03:01:57;3.78;;;1.70;;
53971;SDS011;40530;53.062;6.078;2022-07-17T03:04:23;4.72;;;2.33;;
53971;SDS011;40530;53.062;6.078;2022-07-17T03:06:49;5.95;;;1.73;;
53971;SDS011;40530;53.062;6.078;2022-07-17T03:09:15;7.82;;;2.17;;
53971;SDS011;40530;53.062;6.078;2022-07-17T03:11:41;6.50;;;2.80;;
53971;SDS011;40530;53.062;6.078;2022-07-17T03:14:07;6.07;;;2.17;;
53971;SDS011;40530;53.062;6.078;2022-07-17T03:16:33;4.57;;;2.15;;
53971;SDS011;40530;53.062;6.078;2022-07-17T03:18:59;5.30;;;2.50;;
53971;SDS011;40530;53.062;6.078;2022-07-17T03:21:25;6.80;;;2.28;;
53971;SDS011;40530;53.062;6.078;2022-07-17T03:23:51;5.75;;;3.03;;
53971;SDS011;40530;53.062;6.078;2022-07-17T03:26:18;4.20;;;2.25;;
53971;SDS011;40530;53.062;6.078;2022-07-17T03:28:44;3.60;;;1.70;;
53971;SDS011;40530;53.062;6.078;2022-07-17T03:31:10;5.78;;;2.15;;
53971;SDS011;40530;53.062;6.078;2022-07-17T03:33:36;4.47;;;1.90;;
53971;SDS011;40530;53.062;6.078;2022-07-17T03:36:02;2.00;;;1.38;;
53971;SDS011;40530;53.062;6.078;2022-07-17T03:38:28;2.90;;;1.83;;
53971;SDS011;40530;53.062;6.078;2022-07-17T03:40:54;3.42;;;1.95;;
53971;SDS011;40530;53.062;6.078;2022-07-17T03:43:20;2.60;;;1.50;;
53971;SDS011;40530;53.062;6.078;2022-07-17T03:45:46;6.82;;;2.05;;
53971;SDS011;40530;53.062;6.078;2022-07-17T03:48:13;6.00;;;1.30;;
53971;SDS011;40530;53.062;6.078;2022-07-17T03:50:39;4.80;;;1.67;;
53971;SDS011;40530;53.062;6.078;2022-07-17T03:53:05;6.03;;;1.33;;
53971;SDS011;40530;53.062;6.078;2022-07-17T03:55:31;4.82;;;1.80;;
53971;SDS011;40530;53.062;6.078;2022-07-17T03:57:57;2.42;;;1.35;;
53971;SDS011;40530;53.062;6.078;2022-07-17T04:00:23;1.20;;;1.10;;
53971;SDS011;40530;53.062;6.078;2022-07-17T04:02:49;5.22;;;1.67;;
53971;SDS011;40530;53.062;6.078;2022-07-17T04:05:15;5.00;;;1.60;;
53971;SDS011;40530;53.062;6.078;2022-07-17T04:07:41;5.25;;;1.33;;
53971;SDS011;40530;53.062;6.078;2022-07-17T04:10:08;4.20;;;1.60;;
53971;SDS011;40530;53.062;6.078;2022-07-17T04:12:35;5.60;;;1.55;;
53971;SDS011;40530;53.062;6.078;2022-07-17T04:15:01;4.15;;;2.20;;
53971;SDS011;40530;53.062;6.078;2022-07-17T04:17:27;4.43;;;1.33;;
53971;SDS011;40530;53.062;6.078;2022-07-17T04:19:54;4.05;;;1.38;;
53971;SDS011;40530;53.062;6.078;2022-07-17T04:22:20;5.60;;;1.70;;
53971;SDS011;40530;53.062;6.078;2022-07-17T04:24:46;8.02;;;1.63;;
53971;SDS011;40530;53.062;6.078;2022-07-17T04:27:12;5.00;;;1.70;;
53971;SDS011;40530;53.062;6.078;2022-07-17T04:29:38;6.40;;;2.80;;
53971;SDS011;40530;53.062;6.078;2022-07-17T04:32:05;5.40;;;1.88;;
53971;SDS011;40530;53.062;6.078;2022-07-17T04:34:31;4.15;;;1.60;;
53971;SDS011;40530;53.062;6.078;2022-07-17T04:36:59;5.00;;;1.40;;
53971;SDS011;40530;53.062;6.078;2022-07-17T04:39:25;3.42;;;1.30;;
53971;SDS011;40530;53.062;6.078;2022-07-17T04:41:51;6.22;;;1.75;;
53971;SDS011;40530;53.062;6.078;2022-07-17T04:44:17;7.38;;;1.42;;
53971;SDS011;40530;53.062;6.078;2022-07-17T04:46:44;5.93;;;1.30;;
53971;SDS011;40530;53.062;6.078;2022-07-17T04:49:10;4.90;;;1.35;;
53971;SDS011;40530;53.062;6.078;2022-07-17T04:51:36;3.03;;;1.50;;
53971;SDS011;40530;53.062;6.078;2022-07-17T04:54:02;4.10;;;1.33;;
53971;SDS011;40530;53.062;6.078;2022-07-17T04:56:28;4.65;;;1.75;;
53971;SDS011;40530;53.062;6.078;2022-07-17T04:58:54;3.55;;;1.42;;
53971;SDS011;40530;53.062;6.078;2022-07-17T05:01:20;5.90;;;1.17;;
53971;SDS011;40530;53.062;6.078;2022-07-17T05:03:46;4.88;;;1.45;;
53971;SDS011;40530;53.062;6.078;2022-07-17T05:06:12;3.03;;;1.65;;
53971;SDS011;40530;53.062;6.078;2022-07-17T05:08:38;5.35;;;1.27;;
53971;SDS011;40530;53.062;6.078;2022-07-17T05:11:04;5.80;;;1.92;;
53971;SDS011;40530;53.062;6.078;2022-07-17T05:13:30;3.22;;;1.25;;
53971;SDS011;40530;53.062;6.078;2022-07-17T05:15:57;3.97;;;1.20;;
53971;SDS011;40530;53.062;6.078;2022-07-17T05:18:23;4.40;;;1.30;;
53971;SDS011;40530;53.062;6.078;2022-07-17T05:20:49;8.27;;;1.13;;
53971;SDS011;40530;53.062;6.078;2022-07-17T05:23:15;9.18;;;1.10;;
53971;SDS011;40530;53.062;6.078;2022-07-17T05:25:41;9.50;;;2.80;;
53971;SDS011;40530;53.062;6.078;2022-07-17T05:28:08;5.78;;;1.95;;
53971;SDS011;40530;53.062;6.078;2022-07-17T05:30:34;4.25;;;1.70;;
53971;SDS011;40530;53.062;6.078;2022-07-17T05:33:00;4.18;;;1.05;;
53971;SDS011;40530;53.062;6.078;2022-07-17T05:35:26;8.63;;;1.45;;
53971;SDS011;40530;53.062;6.078;2022-07-17T05:37:53;5.45;;;1.52;;
53971;SDS011;40530;53.062;6.078;2022-07-17T05:40:19;4.35;;;1.30;;
53971;SDS011;40530;53.062;6.078;2022-07-17T05:42:45;5.35;;;1.85;;
53971;SDS011;40530;53.062;6.078;2022-07-17T05:45:11;3.58;;;1.40;;
53971;SDS011;40530;53.062;6.078;2022-07-17T05:47:37;5.05;;;1.55;;
53971;SDS011;40530;53.062;6.078;2022-07-17T05:50:03;6.50;;;1.50;;
53971;SDS011;40530;53.062;6.078;2022-07-17T05:52:29;5.15;;;1.70;;
53971;SDS011;40530;53.062;6.078;2022-07-17T05:54:55;7.25;;;2.70;;
53971;SDS011;40530;53.062;6.078;2022-07-17T05:57:21;4.45;;;1.48;;
53971;SDS011;40530;53.062;6.078;2022-07-17T05:59:47;4.35;;;1.45;;
53971;SDS011;40530;53.062;6.078;2022-07-17T06:02:13;3.47;;;1.50;;
53971;SDS011;40530;53.062;6.078;2022-07-17T06:04:39;6.18;;;1.52;;
53971;SDS011;40530;53.062;6.078;2022-07-17T06:07:05;8.35;;;1.50;;
53971;SDS011;40530;53.062;6.078;2022-07-17T06:09:31;10.30;;;2.35;;
53971;SDS011;40530;53.062;6.078;2022-07-17T06:11:57;5.20;;;1.80;;
53971;SDS011;40530;53.062;6.078;2022-07-17T06:14:23;5.63;;;1.23;;
53971;SDS011;40530;53.062;6.078;2022-07-17T06:16:50;4.97;;;1.25;;
53971;SDS011;40530;53.062;6.078;2022-07-17T06:19:16;5.75;;;1.25;;
53971;SDS011;40530;53.062;6.078;2022-07-17T06:21:42;3.60;;;1.20;;
53971;SDS011;40530;53.062;6.078;2022-07-17T06:24:08;11.52;;;2.50;;
53971;SDS011;40530;53.062;6.078;2022-07-17T06:26:34;11.88;;;2.13;;
53971;SDS011;40530;53.062;6.078;2022-07-17T06:29:00;7.75;;;1.70;;
53971;SDS011;40530;53.062;6.078;2022-07-17T06:31:27;6.07;;;1.30;;
53971;SDS011;40530;53.062;6.078;2022-07-17T06:33:53;3.75;;;0.98;;
53971;SDS011;40530;53.062;6.078;2022-07-17T06:36:19;6.18;;;1.38;;
53971;SDS011;40530;53.062;6.078;2022-07-17T06:38:46;7.40;;;1.63;;
53971;SDS011;40530;53.062;6.078;2022-07-17T06:41:12;7.50;;;1.17;;
53971;SDS011;40530;53.062;6.078;2022-07-17T06:43:38;7.38;;;2.00;;
53971;SDS011;40530;53.062;6.078;2022-07-17T06:46:04;10.27;;;1.67;;
53971;SDS011;40530;53.062;6.078;2022-07-17T06:48:30;8.68;;;1.75;;
53971;SDS011;40530;53.062;6.078;2022-07-17T06:50:56;6.38;;;1.00;;
53971;SDS011;40530;53.062;6.078;2022-07-17T06:53:22;6.70;;;0.90;;
53971;SDS011;40530;53.062;6.078;2022-07-17T06:55:48;9.90;;;1.25;;
53971;SDS011;40530;53.062;6.078;2022-07-17T06:58:14;10.52;;;1.10;;
53971;SDS011;40530;53.062;6.078;2022-07-17T07:00:40;7.65;;;1.80;;
53971;SDS011;40530;53.062;6.078;2022-07-17T07:03:06;4.20;;;1.00;;
53971;SDS011;40530;53.062;6.078;2022-07-17T07:05:33;3.60;;;0.90;;
53971;SDS011;40530;53.062;6.078;2022-07-17T07:07:59;7.10;;;0.88;;
53971;SDS011;40530;53.062;6.078;2022-07-17T07:10:25;5.85;;;1.38;;
53971;SDS011;40530;53.062;6.078;2022-07-17T07:12:51;4.88;;;1.45;;
53971;SDS011;40530;53.062;6.078;2022-07-17T07:15:18;7.38;;;1.00;;
53971;SDS011;40530;53.062;6.078;2022-07-17T07:17:45;5.72;;;1.27;;
53971;SDS011;40530;53.062;6.078;2022-07-17T07:20:11;5.60;;;0.80;;
53971;SDS011;40530;53.062;6.078;2022-07-17T07:22:37;5.78;;;0.73;;
53971;SDS011;40530;53.062;6.078;2022-07-17T07:25:03;6.18;;;0.60;;
53971;SDS011;40530;53.062;6.078;2022-07-17T07:27:30;6.38;;;1.00;;
53971;SDS011;40530;53.062;6.078;2022-07-17T07:29:57;5.28;;;0.80;;
53971;SDS011;40530;53.062;6.078;2022-07-17T07:32:23;2.85;;;0.63;;
53971;SDS011;40530;53.062;6.078;2022-07-17T07:34:49;11.02;;;0.95;;
53971;SDS011;40530;53.062;6.078;2022-07-17T07:37:15;4.65;;;0.98;;
53971;SDS011;40530;53.062;6.078;2022-07-17T07:39:41;7.35;;;1.90;;
53971;SDS011;40530;53.062;6.078;2022-07-17T07:42:09;6.68;;;0.90;;
53971;SDS011;40530;53.062;6.078;2022-07-17T07:44:36;3.08;;;0.60;;
53971;SDS011;40530;53.062;6.078;2022-07-17T07:47:02;6.40;;;1.00;;
53971;SDS011;40530;53.062;6.078;2022-07-17T07:49:29;6.53;;;1.00;;
53971;SDS011;40530;53.062;6.078;2022-07-17T07:51:55;5.50;;;1.27;;
53971;SDS011;40530;53.062;6.078;2022-07-17T07:54:21;4.75;;;0.80;;
53971;SDS011;40530;53.062;6.078;2022-07-17T07:56:47;4.20;;;1.38;;
53971;SDS011;40530;53.062;6.078;2022-07-17T07:59:13;5.55;;;0.90;;
53971;SDS011;40530;53.062;6.078;2022-07-17T08:01:39;6.18;;;1.20;;
53971;SDS011;40530;53.062;6.078;2022-07-17T08:04:06;4.13;;;0.65;;
53971;SDS011;40530;53.062;6.078;2022-07-17T08:06:32;5.78;;;1.13;;
53971;SDS011;40530;53.062;6.078;2022-07-17T08:08:58;3.30;;;1.42;;
53971;SDS011;40530;53.062;6.078;2022-07-17T08:11:25;5.25;;;1.10;;
53971;SDS011;40530;53.062;6.078;2022-07-17T08:13:51;4.30;;;1.00;;
53971;SDS011;40530;53.062;6.078;2022-07-17T08:16:17;4.05;;;0.80;;
53971;SDS011;40530;53.062;6.078;2022-07-17T08:18:43;5.53;;;1.17;;
53971;SDS011;40530;53.062;6.078;2022-07-17T08:21:09;5.93;;;1.10;;
53971;SDS011;40530;53.062;6.078;2022-07-17T08:23:35;6.13;;;1.20;;
53971;SDS011;40530;53.062;6.078;2022-07-17T08:26:01;2.28;;;0.60;;
53971;SDS011;40530;53.062;6.078;2022-07-17T08:28:28;4.97;;;1.00;;
53971;SDS011;40530;53.062;6.078;2022-07-17T08:30:54;6.00;;;1.48;;
53971;SDS011;40530;53.062;6.078;2022-07-17T08:33:20;3.33;;;0.80;;
53971;SDS011;40530;53.062;6.078;2022-07-17T08:35:46;5.05;;;1.25;;
53971;SDS011;40530;53.062;6.078;2022-07-17T08:38:12;7.38;;;1.30;;
53971;SDS011;40530;53.062;6.078;2022-07-17T08:40:38;7.63;;;1.55;;
53971;SDS011;40530;53.062;6.078;2022-07-17T08:43:06;3.47;;;0.85;;
53971;SDS011;40530;53.062;6.078;2022-07-17T08:45:34;3.40;;;1.00;;
53971;SDS011;40530;53.062;6.078;2022-07-17T08:48:00;3.60;;;0.80;;
53971;SDS011;40530;53.062;6.078;2022-07-17T08:50:29;5.63;;;1.15;;
53971;SDS011;40530;53.062;6.078;2022-07-17T08:52:56;4.60;;;0.80;;
53971;SDS011;40530;53.062;6.078;2022-07-17T08:55:22;4.32;;;1.27;;
53971;SDS011;40530;53.062;6.078;2022-07-17T08:57:48;1.48;;;0.68;;
53971;SDS011;40530;53.062;6.078;2022-07-17T09:00:15;5.93;;;0.90;;
53971;SDS011;40530;53.062;6.078;2022-07-17T09:02:58;5.57;;;1.00;;
53971;SDS011;40530;53.062;6.078;2022-07-17T09:05:27;4.68;;;0.93;;
53971;SDS011;40530;53.062;6.078;2022-07-17T09:07:53;4.10;;;0.77;;
53971;SDS011;40530;53.062;6.078;2022-07-17T09:10:29;2.13;;;0.52;;
53971;SDS011;40530;53.062;6.078;2022-07-17T09:12:55;3.03;;;0.68;;
53971;SDS011;40530;53.062;6.078;2022-07-17T09:15:21;2.28;;;0.80;;
53971;SDS011;40530;53.062;6.078;2022-07-17T09:17:48;3.35;;;1.00;;
53971;SDS011;40530;53.062;6.078;2022-07-17T09:20:14;2.67;;;1.13;;
53971;SDS011;40530;53.062;6.078;2022-07-17T09:22:41;6.50;;;1.23;;
53971;SDS011;40530;53.062;6.078;2022-07-17T09:25:08;4.20;;;1.10;;
53971;SDS011;40530;53.062;6.078;2022-07-17T09:27:34;3.28;;;0.90;;
53971;SDS011;40530;53.062;6.078;2022-07-17T09:30:01;3.55;;;0.93;;
53971;SDS011;40530;53.062;6.078;2022-07-17T09:32:29;2.22;;;0.98;;
53971;SDS011;40530;53.062;6.078;2022-07-17T09:34:57;5.82;;;0.85;;
53971;SDS011;40530;53.062;6.078;2022-07-17T09:37:24;5.13;;;1.00;;
53971;SDS011;40530;53.062;6.078;2022-07-17T09:39:51;2.30;;;0.80;;
53971;SDS011;40530;53.062;6.078;2022-07-17T09:42:22;3.22;;;0.90;;
53971;SDS011;40530;53.062;6.078;2022-07-17T09:47:27;5.15;;;1.50;;
53971;SDS011;40530;53.062;6.078;2022-07-17T09:49:54;7.85;;;1.10;;
53971;SDS011;40530;53.062;6.078;2022-07-17T09:52:24;5.10;;;0.95;;
53971;SDS011;40530;53.062;6.078;2022-07-17T09:54:51;3.50;;;1.10;;
53971;SDS011;40530;53.062;6.078;2022-07-17T09:57:17;2.65;;;0.90;;
53971;SDS011;40530;53.062;6.078;2022-07-17T09:59:44;3.13;;;0.88;;
53971;SDS011;40530;53.062;6.078;2022-07-17T10:02:11;3.58;;;1.23;;
53971;SDS011;40530;53.062;6.078;2022-07-17T10:04:37;6.40;;;1.23;;
53971;SDS011;40530;53.062;6.078;2022-07-17T10:07:04;1.85;;;0.80;;
53971;SDS011;40530;53.062;6.078;2022-07-17T10:09:33;4.07;;;0.70;;
53971;SDS011;40530;53.062;6.078;2022-07-17T10:11:59;3.50;;;0.90;;
53971;SDS011;40530;53.062;6.078;2022-07-17T10:14:26;2.08;;;0.73;;
53971;SDS011;40530;53.062;6.078;2022-07-17T10:16:52;2.97;;;0.80;;
53971;SDS011;40530;53.062;6.078;2022-07-17T10:19:19;5.60;;;1.50;;
53971;SDS011;40530;53.062;6.078;2022-07-17T10:21:52;3.28;;;0.90;;
53971;SDS011;40530;53.062;6.078;2022-07-17T10:24:20;2.35;;;0.70;;
53971;SDS011;40530;53.062;6.078;2022-07-17T10:26:46;3.22;;;0.75;;
53971;SDS011;40530;53.062;6.078;2022-07-17T10:29:30;3.50;;;0.80;;
53971;SDS011;40530;53.062;6.078;2022-07-17T10:31:57;4.85;;;0.75;;
53971;SDS011;40530;53.062;6.078;2022-07-17T10:34:40;4.05;;;1.00;;
53971;SDS011;40530;53.062;6.078;2022-07-17T10:37:20;3.58;;;0.85;;
53971;SDS011;40530;53.062;6.078;2022-07-17T10:39:53;2.65;;;0.80;;
53971;SDS011;40530;53.062;6.078;2022-07-17T10:45:08;2.50;;;0.73;;
53971;SDS011;40530;53.062;6.078;2022-07-17T10:50:10;4.85;;;0.82;;
53971;SDS011;40530;53.062;6.078;2022-07-17T10:52:37;2.47;;;0.82;;
53971;SDS011;40530;53.062;6.078;2022-07-17T10:55:04;3.38;;;0.85;;
53971;SDS011;40530;53.062;6.078;2022-07-17T10:57:31;5.30;;;1.15;;
53971;SDS011;40530;53.062;6.078;2022-07-17T10:59:57;3.08;;;0.90;;
53971;SDS011;40530;53.062;6.078;2022-07-17T11:02:29;3.97;;;0.93;;
53971;SDS011;40530;53.062;6.078;2022-07-17T11:05:05;3.08;;;1.27;;
53971;SDS011;40530;53.062;6.078;2022-07-17T11:07:32;2.63;;;0.80;;
53971;SDS011;40530;53.062;6.078;2022-07-17T11:09:58;3.45;;;0.90;;
53971;SDS011;40530;53.062;6.078;2022-07-17T11:12:34;3.67;;;1.05;;
53971;SDS011;40530;53.062;6.078;2022-07-17T11:15:01;2.33;;;0.75;;
53971;SDS011;40530;53.062;6.078;2022-07-17T11:17:27;2.42;;;0.80;;
53971;SDS011;40530;53.062;6.078;2022-07-17T11:19:53;3.47;;;1.30;;
53971;SDS011;40530;53.062;6.078;2022-07-17T11:22:22;3.33;;;1.05;;
53971;SDS011;40530;53.062;6.078;2022-07-17T11:24:58;2.20;;;0.80;;
53971;SDS011;40530;53.062;6.078;2022-07-17T11:27:25;2.42;;;0.90;;
53971;SDS011;40530;53.062;6.078;2022-07-17T11:29:52;1.42;;;0.85;;
53971;SDS011;40530;53.062;6.078;2022-07-17T11:32:18;2.28;;;0.90;;
53971;SDS011;40530;53.062;6.078;2022-07-17T11:34:44;2.95;;;1.17;;
53971;SDS011;40530;53.062;6.078;2022-07-17T11:37:10;4.30;;;1.00;;
53971;SDS011;40530;53.062;6.078;2022-07-17T11:39:46;3.92;;;1.10;;
53971;SDS011;40530;53.062;6.078;2022-07-17T11:42:17;4.53;;;1.17;;
53971;SDS011;40530;53.062;6.078;2022-07-17T11:44:43;3.97;;;1.30;;
53971;SDS011;40530;53.062;6.078;2022-07-17T11:47:10;3.47;;;1.60;;
53971;SDS011;40530;53.062;6.078;2022-07-17T11:49:38;7.13;;;4.90;;
53971;SDS011;40530;53.062;6.078;2022-07-17T11:52:09;3.13;;;1.42;;
53971;SDS011;40530;53.062;6.078;2022-07-17T11:54:48;4.32;;;2.20;;
53971;SDS011;40530;53.062;6.078;2022-07-17T11:57:15;3.92;;;1.33;;
53971;SDS011;40530;53.062;6.078;2022-07-17T11:59:42;2.85;;;1.35;;
53971;SDS011;40530;53.062;6.078;2022-07-17T12:02:13;2.65;;;1.40;;
53971;SDS011;40530;53.062;6.078;2022-07-17T12:04:52;2.20;;;1.37;;
53971;SDS011;40530;53.062;6.078;2022-07-17T12:07:19;2.83;;;1.40;;
53971;SDS011;40530;53.062;6.078;2022-07-17T12:09:45;4.32;;;1.60;;
53971;SDS011;40530;53.062;6.078;2022-07-17T12:12:18;4.13;;;1.77;;
53971;SDS011;40530;53.062;6.078;2022-07-17T12:14:51;6.13;;;1.75;;
53971;SDS011;40530;53.062;6.078;2022-07-17T12:17:18;3.10;;;1.67;;
53971;SDS011;40530;53.062;6.078;2022-07-17T12:19:44;2.47;;;1.42;;
53971;SDS011;40530;53.062;6.078;2022-07-17T12:22:10;3.13;;;1.50;;
53971;SDS011;40530;53.062;6.078;2022-07-17T12:24:37;5.28;;;2.28;;
53971;SDS011;40530;53.062;6.078;2022-07-17T12:27:04;3.65;;;2.20;;
53971;SDS011;40530;53.062;6.078;2022-07-17T12:29:32;3.33;;;1.95;;
53971;SDS011;40530;53.062;6.078;2022-07-17T12:32:11;2.25;;;1.50;;
53971;SDS011;40530;53.062;6.078;2022-07-17T12:34:39;3.83;;;1.88;;
53971;SDS011;40530;53.062;6.078;2022-07-17T12:37:10;4.10;;;2.15;;
53971;SDS011;40530;53.062;6.078;2022-07-17T12:39:36;3.05;;;1.55;;
53971;SDS011;40530;53.062;6.078;2022-07-17T12:42:03;4.13;;;1.95;;
53971;SDS011;40530;53.062;6.078;2022-07-17T12:44:29;3.25;;;1.70;;
53971;SDS011;40530;53.062;6.078;2022-07-17T12:46:55;3.33;;;2.30;;
53971;SDS011;40530;53.062;6.078;2022-07-17T12:49:21;5.82;;;1.90;;
53971;SDS011;40530;53.062;6.078;2022-07-17T12:51:50;5.30;;;1.90;;
53971;SDS011;40530;53.062;6.078;2022-07-17T12:54:16;6.32;;;2.20;;
53971;SDS011;40530;53.062;6.078;2022-07-17T12:56:42;2.60;;;1.80;;
53971;SDS011;40530;53.062;6.078;2022-07-17T12:59:09;3.78;;;1.48;;
53971;SDS011;40530;53.062;6.078;2022-07-17T13:01:35;4.57;;;2.10;;
53971;SDS011;40530;53.062;6.078;2022-07-17T13:04:01;2.25;;;1.70;;
53971;SDS011;40530;53.062;6.078;2022-07-17T13:06:27;7.05;;;2.10;;
53971;SDS011;40530;53.062;6.078;2022-07-17T13:08:53;4.78;;;2.05;;
53971;SDS011;40530;53.062;6.078;2022-07-17T13:11:19;3.78;;;2.03;;
53971;SDS011;40530;53.062;6.078;2022-07-17T13:13:45;11.15;;;7.03;;
53971;SDS011;40530;53.062;6.078;2022-07-17T13:16:12;2.90;;;1.90;;
53971;SDS011;40530;53.062;6.078;2022-07-17T13:18:39;5.55;;;2.25;;
53971;SDS011;40530;53.062;6.078;2022-07-17T13:21:05;3.72;;;2.13;;
53971;SDS011;40530;53.062;6.078;2022-07-17T13:23:32;4.22;;;2.20;;
53971;SDS011;40530;53.062;6.078;2022-07-17T13:26:02;3.08;;;1.92;;
53971;SDS011;40530;53.062;6.078;2022-07-17T13:28:28;10.07;;;3.88;;
53971;SDS011;40530;53.062;6.078;2022-07-17T13:30:54;9.02;;;2.90;;
53971;SDS011;40530;53.062;6.078;2022-07-17T13:33:21;7.65;;;2.30;;
53971;SDS011;40530;53.062;6.078;2022-07-17T13:35:47;3.97;;;2.15;;
53971;SDS011;40530;53.062;6.078;2022-07-17T13:38:13;4.47;;;2.28;;
53971;SDS011;40530;53.062;6.078;2022-07-17T13:40:39;5.38;;;2.22;;
53971;SDS011;40530;53.062;6.078;2022-07-17T13:43:06;3.67;;;1.95;;
53971;SDS011;40530;53.062;6.078;2022-07-17T13:45:32;5.50;;;2.35;;
53971;SDS011;40530;53.062;6.078;2022-07-17T13:47:59;4.55;;;1.92;;
53971;SDS011;40530;53.062;6.078;2022-07-17T13:50:25;6.85;;;2.00;;
53971;SDS011;40530;53.062;6.078;2022-07-17T13:52:53;4.93;;;1.75;;
53971;SDS011;40530;53.062;6.078;2022-07-17T13:55:19;3.08;;;2.00;;
53971;SDS011;40530;53.062;6.078;2022-07-17T13:57:45;3.30;;;1.77;;
53971;SDS011;40530;53.062;6.078;2022-07-17T14:00:11;3.72;;;2.30;;
53971;SDS011;40530;53.062;6.078;2022-07-17T14:02:38;6.63;;;2.20;;
53971;SDS011;40530;53.062;6.078;2022-07-17T14:05:05;2.42;;;1.92;;
53971;SDS011;40530;53.062;6.078;2022-07-17T14:07:32;3.05;;;1.90;;
53971;SDS011;40530;53.062;6.078;2022-07-17T14:09:58;4.07;;;2.00;;
53971;SDS011;40530;53.062;6.078;2022-07-17T14:12:24;4.05;;;2.17;;
53971;SDS011;40530;53.062;6.078;2022-07-17T14:14:50;4.68;;;2.00;;
53971;SDS011;40530;53.062;6.078;2022-07-17T14:17:16;6.70;;;1.92;;
53971;SDS011;40530;53.062;6.078;2022-07-17T14:19:43;3.17;;;1.80;;
53971;SDS011;40530;53.062;6.078;2022-07-17T14:22:09;4.75;;;2.00;;
53971;SDS011;40530;53.062;6.078;2022-07-17T14:24:35;3.92;;;1.95;;
53971;SDS011;40530;53.062;6.078;2022-07-17T14:27:01;4.45;;;1.90;;
53971;SDS011;40530;53.062;6.078;2022-07-17T14:29:27;4.10;;;1.83;;
53971;SDS011;40530;53.062;6.078;2022-07-17T14:31:53;3.95;;;2.17;;
53971;SDS011;40530;53.062;6.078;2022-07-17T14:34:19;8.48;;;2.25;;
53971;SDS011;40530;53.062;6.078;2022-07-17T14:36:46;7.53;;;2.30;;
53971;SDS011;40530;53.062;6.078;2022-07-17T14:39:12;6.65;;;2.20;;
53971;SDS011;40530;53.062;6.078;2022-07-17T14:41:39;2.85;;;1.88;;
53971;SDS011;40530;53.062;6.078;2022-07-17T14:44:05;4.57;;;2.47;;
53971;SDS011;40530;53.062;6.078;2022-07-17T14:46:32;5.45;;;2.63;;
53971;SDS011;40530;53.062;6.078;2022-07-17T14:48:58;3.17;;;2.10;;
53971;SDS011;40530;53.062;6.078;2022-07-17T14:51:24;4.93;;;2.03;;
53971;SDS011;40530;53.062;6.078;2022-07-17T14:53:51;6.82;;;2.50;;